createdAt,value
2022-08-10T00:02:01.437Z,21.20
2022-08-10T00:05:06.997Z,21.07
2022-08-10T00:08:13.291Z,21.05
2022-08-10T00:11:22.320Z,21.00
2022-08-10T00:14:28.545Z,21.00
2022-08-10T00:17:34.606Z,21.07
2022-08-10T00:20:39.691Z,20.94
2022-08-10T00:23:45.234Z,20.91
2022-08-10T00:27:53.035Z,21.01
2022-08-10T00:29:58.945Z,21.03
2022-08-10T00:33:05.652Z,21.01
2022-08-10T00:36:12.151Z,21.04
2022-08-10T00:39:18.299Z,20.89
2022-08-10T00:42:24.925Z,20.94
2022-08-10T00:45:30.838Z,21.00
2022-08-10T00:48:36.732Z,21.01
2022-08-10T00:51:48.741Z,20.81
2022-08-10T00:54:51.285Z,20.78
2022-08-10T00:57:58.540Z,20.85
2022-08-10T01:01:04.365Z,20.86
2022-08-10T01:04:57.607Z,20.99
2022-08-10T01:07:49.620Z,20.95
2022-08-10T01:12:28.619Z,20.99
2022-08-10T01:14:39.541Z,20.98
2022-08-10T01:18:11.942Z,20.91
2022-08-10T01:21:58.558Z,20.73
2022-08-10T01:25:28.092Z,20.80
2022-08-10T01:29:01.551Z,20.82
2022-08-10T01:32:08.904Z,20.55
2022-08-10T01:35:27.337Z,20.66
2022-08-10T01:38:48.827Z,20.59
2022-08-10T01:41:57.541Z,20.61
2022-08-10T01:45:11.217Z,20.70
2022-08-10T01:48:34.818Z,20.66
2022-08-10T01:51:46.328Z,20.71
2022-08-10T01:54:52.325Z,20.64
2022-08-10T01:57:59.039Z,20.59
2022-08-10T02:01:05.997Z,20.58
2022-08-10T02:04:16.227Z,20.61
2022-08-10T02:07:24.189Z,20.39
2022-08-10T02:10:30.780Z,20.32
2022-08-10T02:13:37.099Z,20.26
2022-08-10T02:16:42.436Z,20.23
2022-08-10T02:19:48.848Z,20.23
2022-08-10T02:22:56.677Z,20.20
2022-08-10T02:26:03.497Z,20.19
2022-08-10T02:29:08.925Z,20.16
2022-08-10T02:32:18.551Z,20.16
2022-08-10T02:35:25.945Z,20.09
2022-08-10T02:38:59.421Z,20.11
2022-08-10T02:45:02.709Z,20.12
2022-08-10T02:45:30.903Z,20.16
2022-08-10T02:48:47.583Z,20.23
2022-08-10T02:52:06.695Z,20.34
2022-08-10T02:55:17.568Z,20.46
2022-08-10T02:58:24.744Z,20.47
2022-08-10T03:01:33.443Z,20.56
2022-08-10T03:05:01.595Z,20.58
2022-08-10T03:08:22.164Z,20.63
2022-08-10T03:12:36.130Z,20.75
2022-08-10T03:14:40.413Z,20.93
2022-08-10T03:17:57.213Z,21.10
2022-08-10T03:20:55.265Z,21.12
2022-08-10T03:24:01.582Z,21.16
2022-08-10T03:27:09.599Z,21.15
2022-08-10T03:30:28.296Z,21.19
2022-08-10T03:33:22.580Z,21.19
2022-08-10T03:36:40.019Z,21.22
2022-08-10T03:39:35.194Z,21.23
2022-08-10T03:42:42.015Z,21.28
2022-08-10T03:45:48.554Z,21.43
2022-08-10T03:48:55.779Z,21.54
2022-08-10T03:52:02.077Z,21.65
2022-08-10T03:55:08.898Z,21.71
2022-08-10T03:58:13.520Z,21.74
2022-08-10T04:01:19.347Z,21.75
2022-08-10T04:04:25.821Z,21.67
2022-08-10T04:07:31.576Z,21.57
2022-08-10T04:10:37.683Z,21.46
2022-08-10T04:13:42.647Z,21.35
2022-08-10T04:16:48.372Z,21.29
2022-08-10T04:20:02.673Z,21.29
2022-08-10T04:23:08.043Z,21.36
2022-08-10T04:26:13.750Z,21.46
2022-08-10T04:29:20.839Z,21.56
2022-08-10T04:32:25.948Z,21.66
2022-08-10T04:35:33.375Z,21.81
2022-08-10T04:38:38.935Z,21.95
2022-08-10T04:41:46.187Z,22.17
2022-08-10T04:44:53.046Z,22.30
2022-08-10T04:48:02.978Z,22.54
2022-08-10T04:51:06.342Z,22.73
2022-08-10T04:54:15.817Z,22.90
2022-08-10T04:57:21.330Z,23.07
2022-08-10T05:00:22.175Z,23.25
2022-08-10T05:03:28.558Z,23.36
2022-08-10T05:06:34.483Z,23.39
2022-08-10T05:10:04.203Z,23.38
2022-08-10T05:12:48.933Z,23.38
2022-08-10T05:15:58.300Z,23.57
2022-08-10T05:18:58.432Z,23.75
2022-08-10T05:22:05.148Z,23.95
2022-08-10T05:25:10.734Z,24.15
2022-08-10T05:28:17.300Z,24.37
2022-08-10T05:31:24.214Z,24.47
2022-08-10T05:34:35.406Z,24.55
2022-08-10T05:38:09.692Z,24.61
2022-08-10T05:40:47.882Z,24.73
2022-08-10T05:43:53.373Z,24.81
2022-08-10T05:46:59.652Z,24.86
2022-08-10T05:50:05.258Z,24.84
2022-08-10T05:53:58.736Z,24.84
2022-08-10T05:56:21.520Z,24.84
2022-08-10T06:00:31.038Z,24.87
2022-08-10T06:02:44.888Z,24.95
2022-08-10T06:05:51.811Z,24.89
2022-08-10T06:08:57.334Z,24.89
2022-08-10T06:12:24.023Z,24.98
2022-08-10T06:15:21.275Z,25.17
2022-08-10T06:18:19.841Z,25.35
2022-08-10T06:21:25.983Z,25.53
2022-08-10T06:24:32.583Z,25.73
2022-08-10T06:27:39.046Z,25.88
2022-08-10T06:30:44.525Z,26.00
2022-08-10T06:33:46.127Z,26.10
2022-08-10T06:36:52.132Z,26.22
2022-08-10T06:39:58.508Z,26.31
2022-08-10T06:43:03.942Z,26.35
2022-08-10T06:46:25.537Z,26.28
2022-08-10T06:49:31.143Z,26.29
2022-08-10T06:52:38.427Z,26.30
2022-08-10T06:55:55.677Z,26.32
2022-08-10T06:59:21.141Z,26.42
2022-08-10T07:02:35.100Z,26.57
2022-08-10T07:05:46.872Z,26.74
2022-08-10T07:08:50.072Z,26.80
2022-08-10T07:11:57.389Z,26.88
2022-08-10T07:15:04.830Z,27.10
2022-08-10T07:18:02.957Z,27.43
2022-08-10T07:20:55.688Z,27.52
2022-08-10T07:24:02.928Z,27.51
2022-08-10T07:27:10.611Z,27.49
2022-08-10T07:30:15.497Z,27.41
2022-08-10T07:33:16.093Z,27.51
2022-08-10T07:36:23.467Z,27.54
2022-08-10T07:40:02.936Z,27.63
2022-08-10T07:42:39.880Z,27.72
2022-08-10T07:45:47.654Z,27.91
2022-08-10T07:49:00.193Z,28.09
2022-08-10T07:52:06.465Z,28.30
2022-08-10T07:55:12.553Z,28.46
2022-08-10T07:58:17.834Z,28.55
2022-08-10T08:01:23.382Z,28.67
2022-08-10T08:04:29.807Z,28.74
2022-08-10T08:07:36.212Z,28.81
2022-08-10T08:10:42.950Z,28.87
2022-08-10T08:13:48.823Z,28.85
2022-08-10T08:16:59.363Z,28.72
2022-08-10T08:20:05.264Z,28.66
2022-08-10T08:24:09.713Z,28.59
2022-08-10T08:26:19.837Z,28.55
2022-08-10T08:29:26.773Z,28.56
2022-08-10T08:32:37.821Z,28.53
2022-08-10T08:35:44.211Z,28.50
2022-08-10T08:38:50.987Z,28.53
2022-08-10T08:42:04.410Z,28.56
2022-08-10T08:46:00.324Z,28.62
2022-08-10T08:49:11.320Z,28.88
2022-08-10T08:52:33.307Z,29.07
2022-08-10T08:56:09.167Z,29.33
2022-08-10T08:59:34.841Z,29.38
2022-08-10T09:03:27.544Z,29.38
2022-08-10T09:06:49.051Z,29.43
2022-08-10T09:10:27.871Z,29.52
2022-08-10T09:13:46.618Z,29.70
2022-08-10T09:17:17.164Z,29.77
2022-08-10T09:20:45.256Z,29.98
2022-08-10T09:24:09.102Z,29.98
2022-08-10T09:27:19.884Z,29.99
2022-08-10T09:30:29.629Z,29.92
2022-08-10T09:36:24.242Z,29.76
2022-08-10T09:37:17.832Z,29.67
2022-08-10T09:41:01.100Z,29.65
2022-08-10T09:44:18.088Z,29.72
2022-08-10T09:48:08.048Z,29.84
2022-08-10T09:51:52.066Z,30.08
2022-08-10T09:55:05.386Z,30.27
2022-08-10T09:58:31.337Z,30.32
2022-08-10T10:02:04.171Z,30.44
2022-08-10T10:05:24.184Z,30.49
2022-08-10T10:09:10.358Z,30.54
2022-08-10T10:12:44.193Z,30.59
2022-08-10T10:16:02.196Z,30.64
2022-08-10T10:19:24.005Z,30.66
2022-08-10T10:22:46.580Z,30.68
2022-08-10T10:26:10.530Z,30.79
2022-08-10T10:29:56.394Z,30.89
2022-08-10T10:33:18.902Z,31.00
2022-08-10T10:36:26.039Z,31.06
2022-08-10T10:39:32.095Z,31.10
2022-08-10T10:42:48.518Z,31.08
2022-08-10T10:46:31.199Z,30.96
2022-08-10T10:50:14.356Z,30.94
2022-08-10T10:53:45.942Z,31.03
2022-08-10T10:57:18.318Z,31.19
2022-08-10T11:00:24.547Z,31.27
2022-08-10T11:03:53.061Z,31.35
2022-08-10T11:07:33.809Z,31.29
2022-08-10T11:11:03.713Z,31.29
2022-08-10T11:14:56.152Z,31.28
2022-08-10T11:18:14.991Z,31.36
2022-08-10T11:21:48.824Z,31.52
2022-08-10T11:25:04.729Z,31.61
2022-08-10T11:28:34.121Z,31.62
2022-08-10T11:31:56.143Z,31.65
2022-08-10T11:35:21.384Z,31.58
2022-08-10T11:39:04.009Z,31.55
2022-08-10T11:42:07.692Z,31.52
2022-08-10T11:45:20.458Z,31.43
2022-08-10T11:48:53.853Z,31.43
2022-08-10T11:51:51.458Z,31.39
2022-08-10T11:55:08.188Z,31.32
2022-08-10T11:58:36.518Z,31.29
2022-08-10T12:01:45.942Z,31.32
2022-08-10T12:04:55.203Z,31.38
2022-08-10T12:08:55.032Z,31.44
2022-08-10T12:11:18.169Z,31.52
2022-08-10T12:14:40.237Z,31.64
2022-08-10T12:17:59.604Z,31.73
2022-08-10T12:21:07.692Z,31.77
2022-08-10T12:24:17.935Z,31.83
2022-08-10T12:27:47.495Z,31.86
2022-08-10T12:30:56.833Z,31.97
2022-08-10T12:34:19.479Z,32.04
2022-08-10T12:38:04.875Z,32.00
2022-08-10T12:41:15.647Z,31.90
2022-08-10T12:44:24.514Z,31.81
2022-08-10T12:47:56.895Z,31.55
2022-08-10T12:51:16.076Z,31.49
2022-08-10T12:54:32.022Z,31.46
2022-08-10T12:57:39.676Z,31.49
2022-08-10T13:01:12.766Z,31.53
2022-08-10T13:04:22.736Z,31.51
2022-08-10T13:07:02.234Z,31.53
2022-08-10T13:10:07.088Z,31.52
2022-08-10T13:13:12.182Z,31.52
2022-08-10T13:16:18.041Z,31.52
2022-08-10T13:19:23.417Z,31.50
2022-08-10T13:22:30.455Z,31.54
2022-08-10T13:25:43.941Z,31.51
2022-08-10T13:29:01.804Z,31.46
2022-08-10T13:32:09.829Z,31.51
2022-08-10T13:35:26.056Z,31.54
2022-08-10T13:38:34.341Z,31.58
2022-08-10T13:41:47.584Z,31.69
2022-08-10T13:45:03.574Z,31.71
2022-08-10T13:48:40.340Z,31.77
2022-08-10T13:51:53.658Z,31.74
2022-08-10T13:54:54.576Z,31.56
2022-08-10T13:58:07.471Z,31.49
2022-08-10T14:01:15.577Z,31.39
2022-08-10T14:04:19.698Z,31.30
2022-08-10T14:07:26.823Z,31.23
2022-08-10T14:11:08.892Z,31.19
2022-08-10T14:13:41.256Z,31.13
2022-08-10T14:16:47.567Z,31.07
2022-08-10T14:19:59.325Z,30.97
2022-08-10T14:23:02.226Z,30.88
2022-08-10T14:26:16.023Z,30.80
2022-08-10T14:29:25.290Z,30.79
2022-08-10T14:32:31.614Z,30.79
2022-08-10T14:36:23.338Z,30.85
2022-08-10T14:38:19.268Z,30.89
2022-08-10T14:42:02.717Z,30.93
2022-08-10T14:44:24.217Z,30.96
2022-08-10T14:47:53.745Z,31.00
2022-08-10T14:50:38.596Z,31.05
2022-08-10T14:53:48.668Z,31.10
2022-08-10T14:56:55.275Z,31.17
2022-08-10T15:00:24.669Z,31.08
2022-08-10T15:03:11.155Z,31.06
2022-08-10T15:06:17.022Z,30.99
2022-08-10T15:09:28.492Z,30.90
2022-08-10T15:12:36.764Z,30.86
2022-08-10T15:16:01.960Z,30.75
2022-08-10T15:18:58.516Z,30.69
2022-08-10T15:22:01.257Z,30.55
2022-08-10T15:25:17.838Z,30.55
2022-08-10T15:28:23.674Z,30.45
2022-08-10T15:31:35.636Z,30.40
2022-08-10T15:34:57.744Z,30.33
2022-08-10T15:38:02.813Z,30.24
2022-08-10T15:41:11.366Z,30.12
2022-08-10T15:44:15.990Z,30.03
2022-08-10T15:47:45.027Z,29.94
2022-08-10T15:50:49.328Z,29.84
2022-08-10T15:54:02.239Z,29.60
2022-08-10T15:57:08.314Z,29.60
2022-08-10T16:00:23.824Z,29.53
2022-08-10T16:03:41.905Z,29.43
2022-08-10T16:06:53.663Z,29.35
2022-08-10T16:10:23.425Z,29.12
2022-08-10T16:13:50.603Z,29.03
2022-08-10T16:16:28.124Z,28.97
2022-08-10T16:19:35.041Z,28.97
2022-08-10T16:22:46.184Z,28.80
2022-08-10T16:25:58.102Z,28.80
2022-08-10T16:29:55.929Z,28.72
2022-08-10T16:32:46.624Z,28.60
2022-08-10T16:35:53.270Z,28.51
2022-08-10T16:38:54.855Z,28.42
2022-08-10T16:42:04.389Z,28.32
2022-08-10T16:44:43.421Z,28.22
2022-08-10T16:47:32.101Z,28.15
2022-08-10T16:50:31.554Z,28.08
2022-08-10T16:53:22.926Z,27.98
2022-08-10T16:56:17.229Z,27.83
2022-08-10T16:59:10.485Z,27.73
2022-08-10T17:02:17.957Z,27.74
2022-08-10T17:06:01.419Z,27.63
2022-08-10T17:08:32.801Z,27.50
2022-08-10T17:11:45.802Z,27.41
2022-08-10T17:15:09.108Z,27.39
2022-08-10T17:18:03.763Z,27.33
2022-08-10T17:21:05.650Z,27.20
2022-08-10T17:24:01.130Z,27.14
2022-08-10T17:28:05.263Z,27.09
2022-08-10T17:30:15.814Z,26.97
2022-08-10T17:33:27.336Z,26.92
2022-08-10T17:36:33.471Z,26.92
2022-08-10T17:39:52.439Z,26.81
2022-08-10T17:43:02.611Z,26.76
2022-08-10T17:46:07.934Z,26.68
2022-08-10T17:49:13.054Z,26.64
2022-08-10T17:52:21.590Z,26.64
2022-08-10T17:55:26.899Z,26.60
2022-08-10T17:58:34.422Z,26.68
2022-08-10T18:01:58.948Z,26.66
2022-08-10T18:04:54.067Z,26.55
2022-08-10T18:08:05.818Z,26.49
2022-08-10T18:11:12.964Z,26.45
2022-08-10T18:14:21.734Z,26.44
2022-08-10T18:17:31.386Z,26.32
2022-08-10T18:20:38.629Z,26.31
2022-08-10T18:23:44.715Z,26.18
2022-08-10T18:26:55.360Z,26.14
2022-08-10T18:30:06.288Z,26.09
2022-08-10T18:33:12.650Z,26.08
2022-08-10T18:36:13.394Z,26.10
2022-08-10T18:39:08.090Z,26.16
2022-08-10T18:42:36.904Z,26.16
2022-08-10T18:45:44.848Z,26.09
2022-08-10T18:49:13.286Z,26.04
2022-08-10T18:52:23.206Z,25.91
2022-08-10T18:56:09.808Z,25.81
2022-08-10T18:58:58.470Z,25.81
2022-08-10T19:02:46.629Z,25.73
2022-08-10T19:06:15.442Z,25.80
2022-08-10T19:10:08.026Z,25.80
2022-08-10T19:13:58.361Z,25.61
2022-08-10T19:17:22.364Z,25.51
2022-08-10T19:20:42.403Z,25.50
2022-08-10T19:24:20.119Z,25.50
2022-08-10T19:27:48.743Z,25.48
2022-08-10T19:31:13.821Z,25.42
2022-08-10T19:34:48.283Z,25.33
2022-08-10T19:38:16.929Z,25.30
2022-08-10T19:41:45.012Z,25.12
2022-08-10T19:45:55.491Z,24.99
2022-08-10T19:48:59.818Z,24.91
2022-08-10T19:52:17.560Z,24.88
2022-08-10T19:56:13.374Z,24.90
2022-08-10T19:59:15.574Z,24.86
2022-08-10T20:02:23.741Z,24.97
2022-08-10T20:06:18.099Z,24.91
2022-08-10T20:09:20.680Z,25.16
2022-08-10T20:12:43.220Z,25.12
2022-08-10T20:16:04.771Z,25.05
2022-08-10T20:19:13.395Z,25.05
2022-08-10T20:22:29.457Z,25.08
2022-08-10T20:25:44.367Z,25.09
2022-08-10T20:28:58.173Z,25.03
2022-08-10T20:32:20.562Z,24.99
2022-08-10T20:35:57.036Z,25.03
2022-08-10T20:39:34.823Z,25.06
2022-08-10T20:42:53.795Z,25.12
2022-08-10T20:46:19.660Z,25.21
2022-08-10T20:49:57.616Z,25.26
2022-08-10T20:53:05.293Z,25.28
2022-08-10T20:56:41.476Z,24.95
2022-08-10T21:00:02.350Z,24.99
2022-08-10T21:03:42.768Z,24.96
2022-08-10T21:07:28.506Z,24.89
2022-08-10T21:10:53.453Z,25.00
2022-08-10T21:14:21.868Z,24.95
2022-08-10T21:17:52.609Z,24.83
2022-08-10T21:21:44.872Z,24.94
2022-08-10T21:25:19.770Z,24.73
2022-08-10T21:28:30.679Z,24.60
2022-08-10T21:32:00.828Z,24.54
2022-08-10T21:35:36.835Z,24.53
2022-08-10T21:38:44.536Z,24.41
2022-08-10T21:42:16.830Z,24.30
2022-08-10T21:46:29.047Z,24.29
2022-08-10T21:50:30.199Z,24.26
2022-08-10T21:54:01.043Z,24.25
2022-08-10T21:57:43.017Z,24.18
2022-08-10T22:00:56.871Z,24.13
2022-08-10T22:04:19.952Z,24.07
2022-08-10T22:07:43.824Z,24.03
2022-08-10T22:11:07.197Z,23.99
2022-08-10T22:14:33.703Z,23.88
2022-08-10T22:18:04.751Z,23.85
2022-08-10T22:21:29.395Z,23.78
2022-08-10T22:24:57.877Z,23.71
2022-08-10T22:28:25.392Z,23.58
2022-08-10T22:31:57.430Z,23.53
2022-08-10T22:36:11.928Z,23.42
2022-08-10T22:40:07.147Z,23.41
2022-08-10T22:43:36.316Z,23.32
2022-08-10T22:46:59.127Z,23.42
2022-08-10T22:50:10.465Z,23.42
2022-08-10T22:53:21.912Z,23.39
2022-08-10T22:56:45.122Z,23.35
2022-08-10T22:59:50.778Z,23.25
2022-08-10T23:03:28.452Z,23.18
2022-08-10T23:06:36.099Z,23.08
2022-08-10T23:09:42.352Z,23.16
2022-08-10T23:13:06.040Z,23.09
2022-08-10T23:16:33.013Z,23.00
2022-08-10T23:19:41.066Z,23.05
2022-08-10T23:22:56.683Z,23.00
2022-08-10T23:26:04.126Z,22.99
2022-08-10T23:29:12.493Z,22.93
2022-08-10T23:32:17.931Z,23.04
2022-08-10T23:36:30.662Z,22.94
2022-08-10T23:38:45.566Z,22.83
2022-08-10T23:41:53.148Z,22.87
2022-08-10T23:45:08.081Z,22.82
2022-08-10T23:48:15.576Z,22.85
2022-08-10T23:51:26.126Z,22.74
2022-08-10T23:54:33.213Z,22.78
2022-08-10T23:57:41.099Z,22.73
